createdAt,value
2019-05-30T00:00:11.381Z,20.32
2019-05-30T00:00:57.869Z,20.31
2019-05-30T00:01:56.639Z,20.24
2019-05-30T00:02:56.881Z,20.31
2019-05-30T00:03:56.558Z,20.24
2019-05-30T00:04:56.498Z,20.25
2019-05-30T00:05:56.484Z,20.22
2019-05-30T00:06:56.929Z,20.37
2019-05-30T00:07:56.390Z,20.32
2019-05-30T00:08:56.427Z,20.21
2019-05-30T00:09:56.405Z,20.26
2019-05-30T00:10:56.557Z,20.21
2019-05-30T00:11:56.688Z,20.26
2019-05-30T00:12:56.695Z,20.31
2019-05-30T00:13:56.720Z,20.39
2019-05-30T00:14:56.551Z,20.34
2019-05-30T00:15:56.577Z,20.34
2019-05-30T00:16:56.785Z,20.31
2019-05-30T00:17:56.734Z,20.32
2019-05-30T00:18:56.626Z,20.31
2019-05-30T00:19:56.720Z,20.40
2019-05-30T00:20:56.703Z,20.36
2019-05-30T00:21:56.607Z,20.37
2019-05-30T00:22:56.667Z,20.24
2019-05-30T00:23:55.843Z,20.32
2019-05-30T00:24:55.971Z,20.29
2019-05-30T00:25:55.529Z,20.19
2019-05-30T00:26:56.192Z,20.13
2019-05-30T00:27:55.444Z,20.11
2019-05-30T00:28:56.166Z,20.11
2019-05-30T00:29:55.350Z,20.11
2019-05-30T00:30:56.362Z,20.13
2019-05-30T00:31:55.549Z,20.10
2019-05-30T00:32:56.693Z,20.10
2019-05-30T00:33:55.512Z,20.07
2019-05-30T00:34:55.581Z,20.06
2019-05-30T00:35:55.552Z,20.13
2019-05-30T00:36:55.679Z,20.11
2019-05-30T00:37:55.639Z,20.13
2019-05-30T00:38:55.648Z,20.07
2019-05-30T00:39:55.791Z,20.04
2019-05-30T00:40:55.758Z,20.10
2019-05-30T00:41:56.016Z,20.10
2019-05-30T00:42:55.890Z,20.04
2019-05-30T00:43:55.833Z,19.99
2019-05-30T00:44:55.776Z,20.02
2019-05-30T00:45:55.845Z,20.04
2019-05-30T00:46:54.596Z,19.94
2019-05-30T00:47:54.507Z,20.06
2019-05-30T00:48:54.460Z,20.04
2019-05-30T00:49:54.403Z,19.94
2019-05-30T00:50:54.360Z,19.92
2019-05-30T00:51:54.320Z,19.95
2019-05-30T00:52:54.268Z,19.99
2019-05-30T00:53:54.225Z,20.00
2019-05-30T00:54:54.157Z,20.16
2019-05-30T00:55:54.147Z,20.09
2019-05-30T00:56:54.096Z,20.18
2019-05-30T00:57:54.038Z,20.11
2019-05-30T00:58:53.991Z,20.18
2019-05-30T00:59:53.956Z,20.11
2019-05-30T01:00:53.876Z,20.16
2019-05-30T01:01:53.852Z,20.07
2019-05-30T01:02:53.804Z,20.10
2019-05-30T01:03:53.735Z,20.10
2019-05-30T01:04:53.691Z,20.11
2019-05-30T01:05:53.641Z,20.07
2019-05-30T01:06:53.627Z,20.07
2019-05-30T01:07:53.549Z,20.11
2019-05-30T01:08:53.512Z,20.10
2019-05-30T01:09:53.454Z,20.10
2019-05-30T01:10:53.429Z,20.14
2019-05-30T01:11:53.381Z,20.10
2019-05-30T01:12:53.326Z,20.13
2019-05-30T01:13:53.278Z,20.19
2019-05-30T01:14:53.220Z,20.13
2019-05-30T01:15:53.185Z,20.13
2019-05-30T01:16:53.208Z,20.22
2019-05-30T01:17:53.079Z,20.14
2019-05-30T01:18:53.044Z,20.10
2019-05-30T01:19:53.006Z,20.10
2019-05-30T01:20:52.939Z,20.14
2019-05-30T01:21:52.913Z,20.03
2019-05-30T01:22:52.856Z,20.10
2019-05-30T01:23:52.809Z,20.18
2019-05-30T01:24:52.752Z,20.02
2019-05-30T01:25:52.721Z,20.06
2019-05-30T01:26:52.660Z,20.02
2019-05-30T01:27:52.610Z,20.11
2019-05-30T01:28:52.584Z,20.11
2019-05-30T01:29:52.516Z,20.10
2019-05-30T01:31:00.317Z,20.03
2019-05-30T01:31:52.423Z,20.14
2019-05-30T01:32:52.434Z,20.13
2019-05-30T01:33:52.330Z,20.06
2019-05-30T01:34:52.282Z,20.11
2019-05-30T01:35:52.268Z,20.13
2019-05-30T01:36:52.221Z,20.03
2019-05-30T01:37:52.166Z,20.09
2019-05-30T01:38:52.186Z,20.11
2019-05-30T01:39:52.060Z,20.11
2019-05-30T01:40:52.024Z,20.07
2019-05-30T01:41:51.954Z,20.11
2019-05-30T01:42:51.908Z,20.11
2019-05-30T01:43:51.894Z,20.13
2019-05-30T01:44:51.826Z,20.16
2019-05-30T01:45:51.778Z,20.06
2019-05-30T01:46:51.752Z,20.11
2019-05-30T01:47:51.705Z,20.21
2019-05-30T01:48:51.626Z,20.13
2019-05-30T01:49:51.599Z,20.10
2019-05-30T01:50:51.531Z,20.11
2019-05-30T01:51:51.485Z,20.16
2019-05-30T01:52:51.485Z,20.25
2019-05-30T01:53:51.412Z,20.19
2019-05-30T01:54:51.365Z,20.25
2019-05-30T01:55:51.389Z,20.28
2019-05-30T01:56:51.285Z,20.19
2019-05-30T01:57:51.205Z,20.13
2019-05-30T01:58:51.189Z,20.24
2019-05-30T01:59:51.121Z,20.18
2019-05-30T02:00:51.075Z,20.22
2019-05-30T02:01:51.041Z,20.14
2019-05-30T02:02:50.969Z,20.18
2019-05-30T02:03:50.924Z,20.21
2019-05-30T02:04:50.876Z,20.14
2019-05-30T02:05:50.841Z,20.13
2019-05-30T02:06:50.803Z,20.22
2019-05-30T02:07:50.758Z,20.19
2019-05-30T02:08:50.725Z,20.18
2019-05-30T02:09:50.677Z,20.10
2019-05-30T02:10:50.598Z,20.14
2019-05-30T02:11:50.596Z,20.13
2019-05-30T02:12:50.533Z,20.18
2019-05-30T02:13:50.482Z,20.19
2019-05-30T02:14:50.422Z,20.14
2019-05-30T02:15:50.381Z,20.14
2019-05-30T02:16:50.347Z,20.14
2019-05-30T02:17:50.287Z,20.18
2019-05-30T02:18:50.253Z,20.13
2019-05-30T02:19:50.216Z,20.22
2019-05-30T02:20:50.158Z,20.18
2019-05-30T02:21:50.111Z,20.25
2019-05-30T02:22:50.069Z,20.25
2019-05-30T02:23:49.997Z,20.34
2019-05-30T02:24:49.950Z,20.32
2019-05-30T02:25:49.926Z,20.32
2019-05-30T02:26:49.845Z,20.32
2019-05-30T02:27:49.830Z,20.36
2019-05-30T02:28:49.762Z,20.37
2019-05-30T02:29:49.716Z,20.32
2019-05-30T02:30:49.659Z,20.26
2019-05-30T02:31:49.632Z,20.18
2019-05-30T02:32:49.586Z,20.29
2019-05-30T02:33:49.519Z,20.31
2019-05-30T02:34:49.508Z,20.29
2019-05-30T02:35:49.425Z,20.31
2019-05-30T02:36:49.394Z,20.34
2019-05-30T02:37:49.352Z,20.36
2019-05-30T02:38:49.321Z,20.37
2019-05-30T02:39:49.261Z,20.37
2019-05-30T02:40:49.222Z,20.43
2019-05-30T02:41:49.170Z,20.32
2019-05-30T02:42:49.131Z,20.43
2019-05-30T02:43:49.062Z,20.44
2019-05-30T02:44:49.004Z,20.31
2019-05-30T02:45:48.957Z,20.39
2019-05-30T02:46:48.922Z,20.34
2019-05-30T02:47:48.898Z,20.31
2019-05-30T02:48:58.878Z,20.47
2019-05-30T02:49:48.776Z,20.44
2019-05-30T02:50:48.746Z,20.44
2019-05-30T02:51:48.708Z,20.50
2019-05-30T02:52:48.645Z,20.47
2019-05-30T02:53:48.598Z,20.44
2019-05-30T02:54:48.541Z,20.55
2019-05-30T02:55:48.512Z,20.50
2019-05-30T02:56:48.473Z,20.48
2019-05-30T02:57:48.444Z,20.48
2019-05-30T02:58:48.382Z,20.51
2019-05-30T02:59:48.306Z,20.43
2019-05-30T03:00:48.271Z,20.59
2019-05-30T03:02:00.862Z,20.48
2019-05-30T03:02:48.180Z,20.48
2019-05-30T03:03:48.128Z,20.37
2019-05-30T03:04:48.086Z,20.37
2019-05-30T03:05:48.035Z,20.41
2019-05-30T03:06:47.996Z,20.36
2019-05-30T03:07:47.963Z,20.29
2019-05-30T03:08:47.896Z,20.34
2019-05-30T03:09:47.847Z,20.29
2019-05-30T03:10:47.828Z,20.29
2019-05-30T03:11:47.752Z,20.32
2019-05-30T03:12:47.696Z,20.37
2019-05-30T03:13:47.683Z,20.36
2019-05-30T03:14:47.617Z,20.32
2019-05-30T03:15:47.573Z,20.39
2019-05-30T03:16:47.544Z,20.37
2019-05-30T03:17:47.490Z,20.48
2019-05-30T03:18:47.429Z,20.41
2019-05-30T03:19:47.400Z,20.36
2019-05-30T03:20:47.360Z,20.34
2019-05-30T03:21:47.295Z,20.37
2019-05-30T03:22:47.279Z,20.41
2019-05-30T03:23:47.214Z,20.32
2019-05-30T03:24:47.142Z,20.43
2019-05-30T03:25:47.101Z,20.36
2019-05-30T03:26:47.041Z,20.47
2019-05-30T03:27:47.078Z,20.48
2019-05-30T03:28:46.951Z,20.43
2019-05-30T03:29:46.938Z,20.44
2019-05-30T03:30:46.868Z,20.32
2019-05-30T03:31:46.808Z,20.37
2019-05-30T03:33:12.891Z,20.44
2019-05-30T03:33:46.759Z,20.40
2019-05-30T03:34:46.694Z,20.40
2019-05-30T03:35:46.653Z,20.37
2019-05-30T03:36:46.616Z,20.37
2019-05-30T03:37:46.582Z,20.41
2019-05-30T03:38:46.524Z,20.43
2019-05-30T03:39:46.445Z,20.44
2019-05-30T03:40:46.452Z,20.55
2019-05-30T03:41:46.351Z,20.43
2019-05-30T03:42:46.325Z,20.47
2019-05-30T03:43:46.272Z,20.55
2019-05-30T03:44:46.200Z,20.44
2019-05-30T03:45:46.173Z,20.48
2019-05-30T03:46:46.127Z,20.55
2019-05-30T03:47:46.086Z,20.50
2019-05-30T03:48:46.026Z,20.48
2019-05-30T03:49:46.010Z,20.59
2019-05-30T03:50:45.920Z,20.51
2019-05-30T03:51:45.893Z,20.55
2019-05-30T03:52:45.865Z,20.58
2019-05-30T03:53:45.780Z,20.59
2019-05-30T03:54:45.765Z,20.66
2019-05-30T03:55:45.687Z,20.58
2019-05-30T03:56:45.652Z,20.55
2019-05-30T03:57:45.628Z,20.58
2019-05-30T03:58:45.578Z,20.58
2019-05-30T03:59:45.510Z,20.51
2019-05-30T04:00:45.550Z,20.43
2019-05-30T04:01:45.427Z,20.55
2019-05-30T04:02:57.506Z,20.55
2019-05-30T04:03:45.324Z,20.44
2019-05-30T04:04:45.278Z,20.47
2019-05-30T04:05:45.220Z,20.51
2019-05-30T04:06:45.217Z,20.56
2019-05-30T04:07:45.162Z,20.55
2019-05-30T04:08:45.091Z,20.58
2019-05-30T04:09:45.057Z,20.55
2019-05-30T04:10:45.022Z,20.55
2019-05-30T04:11:44.965Z,20.55
2019-05-30T04:12:44.927Z,20.58
2019-05-30T04:13:44.850Z,20.66
2019-05-30T04:14:44.833Z,20.58
2019-05-30T04:15:44.775Z,20.59
2019-05-30T04:16:44.755Z,20.55
2019-05-30T04:17:44.692Z,20.56
2019-05-30T04:18:44.615Z,20.52
2019-05-30T04:19:44.580Z,20.58
2019-05-30T04:20:44.542Z,20.55
2019-05-30T04:21:44.485Z,20.56
2019-05-30T04:22:44.448Z,20.56
2019-05-30T04:23:44.382Z,20.47
2019-05-30T04:24:44.346Z,20.51
2019-05-30T04:25:44.318Z,20.52
2019-05-30T04:26:44.260Z,20.50
2019-05-30T04:27:44.226Z,20.44
2019-05-30T04:28:44.161Z,20.41
2019-05-30T04:29:44.139Z,20.55
2019-05-30T04:30:44.075Z,20.51
2019-05-30T04:31:44.016Z,20.52
2019-05-30T04:32:44.003Z,20.55
2019-05-30T04:33:43.935Z,20.44
2019-05-30T04:34:43.900Z,20.60
2019-05-30T04:35:43.852Z,20.51
2019-05-30T04:36:43.794Z,20.36
2019-05-30T04:37:43.748Z,20.39
2019-05-30T04:38:43.702Z,20.44
2019-05-30T04:39:43.655Z,20.36
2019-05-30T04:40:43.589Z,20.41
2019-05-30T04:41:43.554Z,20.32
2019-05-30T04:42:43.515Z,20.32
2019-05-30T04:43:43.468Z,20.41
2019-05-30T04:44:43.401Z,20.47
2019-05-30T04:45:43.355Z,20.47
2019-05-30T04:46:43.339Z,20.44
2019-05-30T04:47:43.299Z,20.56
2019-05-30T04:48:43.214Z,20.44
2019-05-30T04:49:43.171Z,20.47
2019-05-30T04:50:43.153Z,20.55
2019-05-30T04:51:43.095Z,20.41
2019-05-30T04:52:43.039Z,20.50
2019-05-30T04:53:43.002Z,20.47
2019-05-30T04:54:42.948Z,20.44
2019-05-30T04:55:42.904Z,20.56
2019-05-30T04:56:42.880Z,20.56
2019-05-30T04:57:42.947Z,20.62
2019-05-30T04:58:43.152Z,20.63
2019-05-30T04:59:42.702Z,20.66
2019-05-30T05:00:42.686Z,20.63
2019-05-30T05:01:42.629Z,20.65
2019-05-30T05:02:42.582Z,20.69
2019-05-30T05:03:46.187Z,20.58
2019-05-30T05:04:42.487Z,20.62
2019-05-30T05:05:42.433Z,20.56
2019-05-30T05:06:42.407Z,20.41
2019-05-30T05:07:42.349Z,20.47
2019-05-30T05:08:42.316Z,20.44
2019-05-30T05:09:42.234Z,20.47
2019-05-30T05:10:42.200Z,20.50
2019-05-30T05:11:42.162Z,20.41
2019-05-30T05:12:42.115Z,20.44
2019-05-30T05:13:42.068Z,20.32
2019-05-30T05:14:42.022Z,20.37
2019-05-30T05:15:41.966Z,20.31
2019-05-30T05:16:41.937Z,20.32
2019-05-30T05:17:41.861Z,20.36
2019-05-30T05:18:41.826Z,20.31
2019-05-30T05:19:41.801Z,20.25
2019-05-30T05:20:41.753Z,20.24
2019-05-30T05:21:41.685Z,20.21
2019-05-30T05:22:41.662Z,20.36
2019-05-30T05:23:41.592Z,20.37
2019-05-30T05:24:41.533Z,20.37
2019-05-30T05:25:41.498Z,20.32
2019-05-30T05:26:41.451Z,20.48
2019-05-30T05:27:41.426Z,20.32
2019-05-30T05:28:41.359Z,20.39
2019-05-30T05:29:41.330Z,20.36
2019-05-30T05:30:41.265Z,20.39
2019-05-30T05:31:41.239Z,20.43
2019-05-30T05:32:41.192Z,20.48
2019-05-30T05:33:55.699Z,20.41
2019-05-30T05:34:41.100Z,20.44
2019-05-30T05:35:41.031Z,20.48
2019-05-30T05:36:40.994Z,20.44
2019-05-30T05:37:40.947Z,20.50
2019-05-30T05:38:40.894Z,20.44
2019-05-30T05:39:40.844Z,20.40
2019-05-30T05:40:40.786Z,20.32
2019-05-30T05:41:40.741Z,20.37
2019-05-30T05:42:40.706Z,20.34
2019-05-30T05:43:40.658Z,20.37
2019-05-30T05:44:40.632Z,20.34
2019-05-30T05:45:40.586Z,20.31
2019-05-30T05:46:40.506Z,20.32
2019-05-30T05:47:40.481Z,20.31
2019-05-30T05:48:40.424Z,20.36
2019-05-30T05:49:40.378Z,20.39
2019-05-30T05:50:40.331Z,20.29
2019-05-30T05:51:40.285Z,20.48
2019-05-30T05:52:40.226Z,20.28
2019-05-30T05:53:40.192Z,20.31
2019-05-30T05:54:40.134Z,20.32
2019-05-30T05:55:40.107Z,20.31
2019-05-30T05:56:40.073Z,20.37
2019-05-30T05:57:40.025Z,20.37
2019-05-30T05:58:39.946Z,20.43
2019-05-30T05:59:39.921Z,20.34
2019-05-30T06:00:39.866Z,20.32
2019-05-30T06:01:39.827Z,20.39
2019-05-30T06:02:39.780Z,20.37
2019-05-30T06:03:39.745Z,20.36
2019-05-30T06:04:39.667Z,20.43
2019-05-30T06:05:52.135Z,20.48
2019-05-30T06:06:39.598Z,20.50
2019-05-30T06:07:39.547Z,20.40
2019-05-30T06:08:39.483Z,20.39
2019-05-30T06:09:39.453Z,20.37
2019-05-30T06:10:39.388Z,20.32
2019-05-30T06:11:39.351Z,20.34
2019-05-30T06:12:39.292Z,20.32
2019-05-30T06:13:39.268Z,20.34
2019-05-30T06:14:39.213Z,20.24
2019-05-30T06:15:39.165Z,20.32
2019-05-30T06:16:39.138Z,20.31
2019-05-30T06:17:39.083Z,20.41
2019-05-30T06:18:39.016Z,20.39
2019-05-30T06:19:46.599Z,20.37
2019-05-30T06:20:38.930Z,20.31
2019-05-30T06:21:53.121Z,20.29
2019-05-30T06:22:38.846Z,20.31
2019-05-30T06:23:38.800Z,20.36
2019-05-30T06:24:38.743Z,20.31
2019-05-30T06:25:38.718Z,20.22
2019-05-30T06:26:38.638Z,20.32
2019-05-30T06:27:38.619Z,20.31
2019-05-30T06:28:38.545Z,20.37
2019-05-30T06:29:38.531Z,20.32
2019-05-30T06:30:38.486Z,20.29
2019-05-30T06:31:38.426Z,20.34
2019-05-30T06:32:38.392Z,20.43
2019-05-30T06:33:38.352Z,20.32
2019-05-30T06:34:39.800Z,20.32
2019-05-30T06:35:38.250Z,20.41
2019-05-30T06:36:38.184Z,20.41
2019-05-30T06:37:38.163Z,20.41
2019-05-30T06:38:38.078Z,20.44
2019-05-30T06:39:38.064Z,20.39
2019-05-30T06:40:38.013Z,20.36
2019-05-30T06:41:37.955Z,20.36
2019-05-30T06:42:37.926Z,20.36
2019-05-30T06:43:37.856Z,20.22
2019-05-30T06:44:37.810Z,20.32
2019-05-30T06:45:37.751Z,20.31
2019-05-30T06:46:37.704Z,20.36
2019-05-30T06:47:37.678Z,20.32
2019-05-30T06:48:37.614Z,20.36
2019-05-30T06:49:37.576Z,20.31
2019-05-30T06:50:37.538Z,20.41
2019-05-30T06:51:37.483Z,20.43
2019-05-30T06:52:37.456Z,20.50
2019-05-30T06:53:37.384Z,20.47
2019-05-30T06:54:37.363Z,20.39
2019-05-30T06:55:37.304Z,20.36
2019-05-30T06:56:37.257Z,20.44
2019-05-30T06:57:37.211Z,20.43
2019-05-30T06:58:47.883Z,20.32
2019-05-30T06:59:37.109Z,20.34
2019-05-30T07:00:37.050Z,20.34
2019-05-30T07:01:37.035Z,20.39
2019-05-30T07:02:36.993Z,20.32
2019-05-30T07:03:37.022Z,20.47
2019-05-30T07:04:50.924Z,20.32
2019-05-30T07:05:37.464Z,20.44
2019-05-30T07:06:37.198Z,20.36
2019-05-30T07:07:36.951Z,20.32
2019-05-30T07:08:36.708Z,20.39
2019-05-30T07:09:36.650Z,20.36
2019-05-30T07:10:36.583Z,20.37
2019-05-30T07:11:36.548Z,20.21
2019-05-30T07:12:36.509Z,20.34
2019-05-30T07:13:36.454Z,20.31
2019-05-30T07:14:36.428Z,20.34
2019-05-30T07:15:36.379Z,20.37
2019-05-30T07:16:36.334Z,20.40
2019-05-30T07:17:36.287Z,20.40
2019-05-30T07:18:36.815Z,20.31
2019-05-30T07:19:37.841Z,20.44
2019-05-30T07:20:36.117Z,20.39
2019-05-30T07:21:36.102Z,20.37
2019-05-30T07:22:36.033Z,20.50
2019-05-30T07:23:39.303Z,20.34
2019-05-30T07:24:35.932Z,20.39
2019-05-30T07:25:35.881Z,20.34
2019-05-30T07:26:35.855Z,20.36
2019-05-30T07:27:35.801Z,20.31
2019-05-30T07:28:35.753Z,20.44
2019-05-30T07:29:35.693Z,20.36
2019-05-30T07:30:35.668Z,20.44
2019-05-30T07:31:35.622Z,20.41
2019-05-30T07:32:35.556Z,20.43
2019-05-30T07:33:35.541Z,20.40
2019-05-30T07:34:35.492Z,20.44
2019-05-30T07:35:35.439Z,20.56
2019-05-30T07:36:35.378Z,20.39
2019-05-30T07:37:35.321Z,20.36
2019-05-30T07:38:35.273Z,20.32
2019-05-30T07:39:37.415Z,20.31
2019-05-30T07:40:35.188Z,20.31
2019-05-30T07:41:35.171Z,20.37
2019-05-30T07:42:35.111Z,20.43
2019-05-30T07:43:35.283Z,20.41
2019-05-30T07:44:35.052Z,20.44
2019-05-30T07:45:35.239Z,20.32
2019-05-30T07:46:35.166Z,20.31
2019-05-30T07:47:34.855Z,20.41
2019-05-30T07:48:34.821Z,20.43
2019-05-30T07:49:34.766Z,20.39
2019-05-30T07:50:34.745Z,20.37
2019-05-30T07:51:34.803Z,20.37
2019-05-30T07:52:34.877Z,20.31
2019-05-30T07:53:34.962Z,20.24
2019-05-30T07:54:35.184Z,20.24
2019-05-30T07:55:35.182Z,20.26
2019-05-30T07:56:35.167Z,20.21
2019-05-30T07:57:34.445Z,20.31
2019-05-30T07:58:35.340Z,20.25
2019-05-30T07:59:34.776Z,20.32
2019-05-30T08:00:35.515Z,20.21
2019-05-30T08:01:34.634Z,20.29
2019-05-30T08:02:34.184Z,20.29
2019-05-30T08:03:34.723Z,20.16
2019-05-30T08:04:34.203Z,20.19
2019-05-30T08:05:34.783Z,20.14
2019-05-30T08:06:33.997Z,20.18
2019-05-30T08:07:35.078Z,20.13
2019-05-30T08:08:33.987Z,20.19
2019-05-30T08:09:35.003Z,20.22
2019-05-30T08:10:34.035Z,20.13
2019-05-30T08:11:33.741Z,20.13
2019-05-30T08:12:34.113Z,20.21
2019-05-30T08:13:33.664Z,20.13
2019-05-30T08:14:33.589Z,20.19
2019-05-30T08:15:33.584Z,20.14
2019-05-30T08:16:33.507Z,20.18
2019-05-30T08:17:33.741Z,20.19
2019-05-30T08:18:33.731Z,20.18
2019-05-30T08:19:34.355Z,20.18
2019-05-30T08:20:33.946Z,20.16
2019-05-30T08:21:34.236Z,20.18
2019-05-30T08:22:34.161Z,20.21
2019-05-30T08:23:34.270Z,20.16
2019-05-30T08:24:34.408Z,20.21
2019-05-30T08:25:34.179Z,20.24
2019-05-30T08:26:34.231Z,20.11
2019-05-30T08:27:34.287Z,20.14
2019-05-30T08:28:32.945Z,20.21
2019-05-30T08:29:32.898Z,20.18
2019-05-30T08:30:32.850Z,20.14
2019-05-30T08:31:32.804Z,20.28
2019-05-30T08:32:32.756Z,20.19
2019-05-30T08:33:33.590Z,20.16
2019-05-30T08:34:32.683Z,20.16
2019-05-30T08:35:43.546Z,20.19
2019-05-30T08:36:32.842Z,20.21
2019-05-30T08:37:33.150Z,20.18
2019-05-30T08:38:33.143Z,20.16
2019-05-30T08:39:33.014Z,20.13
2019-05-30T08:40:33.394Z,20.16
2019-05-30T08:41:33.189Z,20.19
2019-05-30T08:42:33.235Z,20.13
2019-05-30T08:43:33.320Z,20.18
2019-05-30T08:44:32.200Z,20.19
2019-05-30T08:45:32.146Z,20.14
2019-05-30T08:46:32.319Z,20.16
2019-05-30T08:47:32.062Z,20.14
2019-05-30T08:48:32.956Z,20.19
2019-05-30T08:49:31.947Z,20.14
2019-05-30T08:50:32.385Z,20.13
2019-05-30T08:51:32.217Z,20.16
2019-05-30T08:52:32.412Z,20.16
2019-05-30T08:53:32.697Z,20.28
2019-05-30T08:54:32.218Z,20.24
2019-05-30T08:55:32.381Z,20.29
2019-05-30T08:56:32.906Z,20.25
2019-05-30T08:57:32.357Z,20.29
2019-05-30T08:58:32.452Z,20.25
2019-05-30T08:59:32.368Z,20.18
2019-05-30T09:00:31.462Z,20.29
2019-05-30T09:01:31.467Z,20.25
2019-05-30T09:02:31.338Z,20.25
2019-05-30T09:03:31.312Z,20.19
2019-05-30T09:04:31.255Z,20.29
2019-05-30T09:05:31.224Z,20.24
2019-05-30T09:06:31.163Z,20.34
2019-05-30T09:07:31.831Z,20.36
2019-05-30T09:08:31.070Z,20.25
2019-05-30T09:09:31.032Z,20.31
2019-05-30T09:10:30.986Z,20.32
2019-05-30T09:11:30.938Z,20.29
2019-05-30T09:12:30.903Z,20.21
2019-05-30T09:13:30.843Z,20.21
2019-05-30T09:14:30.787Z,20.22
2019-05-30T09:15:30.700Z,20.24
2019-05-30T09:16:30.681Z,20.19
2019-05-30T09:17:30.655Z,20.25
2019-05-30T09:18:30.620Z,20.26
2019-05-30T09:19:30.553Z,20.25
2019-05-30T09:20:30.980Z,20.21
2019-05-30T09:21:30.479Z,20.14
2019-05-30T09:22:30.406Z,20.13
2019-05-30T09:23:30.388Z,20.24
2019-05-30T09:24:30.329Z,20.13
2019-05-30T09:25:30.280Z,20.14
2019-05-30T09:26:30.224Z,20.22
2019-05-30T09:27:30.178Z,20.13
2019-05-30T09:28:30.120Z,20.18
2019-05-30T09:29:30.086Z,20.13
2019-05-30T09:30:30.036Z,20.06
2019-05-30T09:31:30.029Z,20.13
2019-05-30T09:32:29.945Z,20.11
2019-05-30T09:33:29.918Z,20.09
2019-05-30T09:34:29.858Z,20.18
2019-05-30T09:35:29.803Z,20.11
2019-05-30T09:36:29.777Z,20.16
2019-05-30T09:37:29.724Z,20.21
2019-05-30T09:38:29.673Z,20.18
2019-05-30T09:39:29.924Z,20.19
2019-05-30T09:40:29.527Z,20.16
2019-05-30T09:41:29.522Z,20.18
2019-05-30T09:42:29.483Z,20.25
2019-05-30T09:43:29.452Z,20.26
2019-05-30T09:44:29.367Z,20.25
2019-05-30T09:45:29.354Z,20.22
2019-05-30T09:46:29.274Z,20.24
2019-05-30T09:47:29.264Z,20.19
2019-05-30T09:48:29.202Z,20.13
2019-05-30T09:49:29.155Z,20.14
2019-05-30T09:50:29.123Z,20.19
2019-05-30T09:51:29.041Z,20.13
2019-05-30T09:52:29.005Z,20.10
2019-05-30T09:53:28.985Z,20.11
2019-05-30T09:54:28.913Z,20.06
2019-05-30T09:55:28.873Z,20.19
2019-05-30T09:56:28.805Z,20.19
2019-05-30T09:57:28.782Z,20.11
2019-05-30T09:58:28.731Z,20.14
2019-05-30T09:59:28.678Z,20.10
2019-05-30T10:00:28.630Z,20.10
2019-05-30T10:01:28.584Z,20.10
2019-05-30T10:02:28.549Z,20.10
2019-05-30T10:03:28.498Z,20.14
2019-05-30T10:04:28.461Z,20.07
2019-05-30T10:05:28.422Z,20.09
2019-05-30T10:06:29.988Z,20.13
2019-05-30T10:07:28.310Z,20.09
2019-05-30T10:08:28.274Z,20.10
2019-05-30T10:09:28.216Z,20.16
2019-05-30T10:10:28.178Z,20.07
2019-05-30T10:11:28.135Z,20.19
2019-05-30T10:12:28.054Z,20.13
2019-05-30T10:13:28.018Z,20.14
2019-05-30T10:14:27.992Z,20.13
2019-05-30T10:15:27.926Z,20.22
2019-05-30T10:16:27.899Z,20.19
2019-05-30T10:17:27.850Z,20.19
2019-05-30T10:18:27.785Z,20.16
2019-05-30T10:19:27.747Z,20.13
2019-05-30T10:20:27.708Z,20.22
2019-05-30T10:21:27.630Z,20.14
2019-05-30T10:22:27.613Z,20.14
2019-05-30T10:23:27.584Z,20.16
2019-05-30T10:24:27.531Z,20.26
2019-05-30T10:25:27.473Z,20.19
2019-05-30T10:26:27.427Z,20.18
2019-05-30T10:27:27.380Z,20.31
2019-05-30T10:28:27.316Z,20.21
2019-05-30T10:29:27.267Z,20.32
2019-05-30T10:30:27.178Z,20.36
2019-05-30T10:31:27.177Z,20.25
2019-05-30T10:32:27.133Z,20.24
2019-05-30T10:33:27.091Z,20.22
2019-05-30T10:34:27.037Z,20.19
2019-05-30T10:35:29.860Z,20.22
2019-05-30T10:36:26.923Z,20.22
2019-05-30T10:37:26.894Z,20.29
2019-05-30T10:38:26.851Z,20.32
2019-05-30T10:39:26.830Z,20.32
2019-05-30T10:40:26.769Z,20.36
2019-05-30T10:41:26.722Z,20.34
2019-05-30T10:42:26.661Z,20.36
2019-05-30T10:43:26.610Z,20.44
2019-05-30T10:44:26.562Z,20.39
2019-05-30T10:45:26.533Z,20.41
2019-05-30T10:46:26.495Z,20.51
2019-05-30T10:47:26.408Z,20.44
2019-05-30T10:48:26.361Z,20.55
2019-05-30T10:49:34.699Z,20.43
2019-05-30T10:50:26.269Z,20.55
2019-05-30T10:51:26.245Z,20.44
2019-05-30T10:52:26.204Z,20.55
2019-05-30T10:53:26.182Z,20.58
2019-05-30T10:54:26.092Z,20.55
2019-05-30T10:55:26.049Z,20.59
2019-05-30T10:56:26.005Z,20.58
2019-05-30T10:57:25.968Z,20.67
2019-05-30T10:58:25.905Z,20.66
2019-05-30T10:59:25.855Z,20.63
2019-05-30T11:00:25.807Z,20.72
2019-05-30T11:01:25.772Z,20.72
2019-05-30T11:02:25.726Z,20.72
2019-05-30T11:03:25.677Z,20.72
2019-05-30T11:04:25.630Z,20.66
2019-05-30T11:05:25.584Z,20.62
2019-05-30T11:06:25.523Z,20.58
2019-05-30T11:07:25.500Z,20.66
2019-05-30T11:08:25.455Z,20.56
2019-05-30T11:09:25.401Z,20.58
2019-05-30T11:10:25.350Z,20.48
2019-05-30T11:11:25.298Z,20.47
2019-05-30T11:12:25.235Z,20.48
2019-05-30T11:13:25.201Z,20.44
2019-05-30T11:14:25.163Z,20.48
2019-05-30T11:15:25.123Z,20.50
2019-05-30T11:16:25.081Z,20.62
2019-05-30T11:17:25.018Z,20.69
2019-05-30T11:18:24.973Z,20.75
2019-05-30T11:19:24.924Z,20.82
2019-05-30T11:20:24.873Z,20.90
2019-05-30T11:21:24.826Z,20.90
2019-05-30T11:22:24.828Z,21.06
2019-05-30T11:23:24.755Z,21.09
2019-05-30T11:24:24.695Z,21.03
2019-05-30T11:25:24.674Z,21.03
2019-05-30T11:26:24.603Z,21.22
2019-05-30T11:27:24.547Z,21.40
2019-05-30T11:28:24.488Z,21.35
2019-05-30T11:29:24.472Z,21.42
2019-05-30T11:30:24.409Z,21.39
2019-05-30T11:31:24.381Z,21.36
2019-05-30T11:32:24.333Z,21.42
2019-05-30T11:33:24.276Z,21.36
2019-05-30T11:34:24.235Z,21.32
2019-05-30T11:35:24.198Z,21.27
2019-05-30T11:36:24.139Z,21.27
2019-05-30T11:37:24.084Z,21.20
2019-05-30T11:38:24.037Z,21.05
2019-05-30T11:39:24.072Z,21.02
2019-05-30T11:40:23.971Z,20.96
2019-05-30T11:41:23.908Z,20.96
2019-05-30T11:42:23.848Z,21.05
2019-05-30T11:43:23.810Z,21.00
2019-05-30T11:44:23.779Z,21.06
2019-05-30T11:45:23.728Z,21.07
2019-05-30T11:46:23.665Z,21.02
2019-05-30T11:47:23.626Z,21.00
2019-05-30T11:48:23.572Z,21.12
2019-05-30T11:49:23.522Z,21.24
2019-05-30T11:50:23.477Z,21.18
2019-05-30T11:51:23.428Z,21.18
2019-05-30T11:52:23.412Z,21.12
2019-05-30T11:53:23.333Z,21.25
2019-05-30T11:54:23.299Z,21.24
2019-05-30T11:55:23.263Z,21.32
2019-05-30T11:56:23.219Z,21.57
2019-05-30T11:57:23.190Z,21.57
2019-05-30T11:58:23.091Z,21.58
2019-05-30T11:59:23.067Z,21.64
2019-05-30T12:00:23.009Z,21.72
2019-05-30T12:01:22.955Z,21.76
2019-05-30T12:02:22.940Z,21.95
2019-05-30T12:03:22.882Z,22.06
2019-05-30T12:04:22.836Z,22.17
2019-05-30T12:05:22.819Z,22.20
2019-05-30T12:06:22.739Z,22.41
2019-05-30T12:07:35.698Z,22.51
2019-05-30T12:08:22.641Z,22.57
2019-05-30T12:09:22.610Z,22.72
2019-05-30T12:10:22.559Z,22.75
2019-05-30T12:11:22.514Z,22.84
2019-05-30T12:12:22.477Z,22.91
2019-05-30T12:13:22.440Z,22.87
2019-05-30T12:14:22.386Z,22.94
2019-05-30T12:15:22.355Z,22.84
2019-05-30T12:16:22.276Z,22.93
2019-05-30T12:17:22.232Z,22.99
2019-05-30T12:18:22.203Z,22.98
2019-05-30T12:19:22.149Z,22.96
2019-05-30T12:20:22.090Z,23.03
2019-05-30T12:21:22.045Z,22.99
2019-05-30T12:22:22.007Z,22.91
2019-05-30T12:23:21.941Z,23.02
2019-05-30T12:24:21.942Z,22.88
2019-05-30T12:25:21.855Z,22.90
2019-05-30T12:26:21.839Z,22.78
2019-05-30T12:27:21.792Z,22.84
2019-05-30T12:28:21.726Z,22.87
2019-05-30T12:29:21.706Z,23.00
2019-05-30T12:30:21.656Z,23.06
2019-05-30T12:31:21.597Z,23.03
2019-05-30T12:32:21.531Z,23.08
2019-05-30T12:33:21.512Z,23.06
2019-05-30T12:34:21.474Z,23.03
2019-05-30T12:35:21.615Z,22.88
2019-05-30T12:36:21.370Z,23.09
2019-05-30T12:37:23.573Z,23.24
2019-05-30T12:38:21.261Z,23.27
2019-05-30T12:39:21.220Z,23.27
2019-05-30T12:40:21.194Z,23.31
2019-05-30T12:41:21.143Z,23.23
2019-05-30T12:42:21.091Z,23.23
2019-05-30T12:43:21.030Z,23.25
2019-05-30T12:44:21.009Z,23.39
2019-05-30T12:45:20.961Z,23.40
2019-05-30T12:46:20.908Z,23.44
2019-05-30T12:47:20.882Z,23.55
2019-05-30T12:48:20.816Z,23.46
2019-05-30T12:49:20.778Z,23.55
2019-05-30T12:50:20.733Z,23.41
2019-05-30T12:51:20.679Z,23.47